createdAt,value
2022-12-18T00:02:17.162Z,-0.68
2022-12-18T00:04:54.712Z,-0.64
2022-12-18T00:07:25.032Z,-0.64
2022-12-18T00:09:56.891Z,-0.72
2022-12-18T00:12:30.210Z,-0.55
2022-12-18T00:15:03.620Z,-0.62
2022-12-18T00:17:34.062Z,-0.67
2022-12-18T00:20:05.027Z,-0.60
2022-12-18T00:22:36.017Z,-0.53
2022-12-18T00:25:19.447Z,-0.44
2022-12-18T00:27:49.940Z,-0.43
2022-12-18T00:30:28.547Z,-0.45
2022-12-18T00:32:59.761Z,-0.31
2022-12-18T00:35:31.382Z,-0.68
2022-12-18T00:38:07.411Z,-0.29
2022-12-18T00:40:39.146Z,-0.39
2022-12-18T00:43:09.638Z,-0.23
2022-12-18T00:45:40.183Z,-0.49
2022-12-18T00:48:16.898Z,-0.52
2022-12-18T00:50:47.590Z,-0.35
2022-12-18T00:53:20.271Z,-0.14
2022-12-18T00:55:50.687Z,-0.51
2022-12-18T00:58:29.483Z,-0.50
2022-12-18T01:01:00.085Z,-0.44
2022-12-18T01:03:30.709Z,-0.43
2022-12-18T01:06:07.680Z,-0.24
2022-12-18T01:08:38.637Z,-0.22
2022-12-18T01:11:24.048Z,-0.35
2022-12-18T01:13:56.000Z,-0.26
2022-12-18T01:16:26.574Z,-0.08
2022-12-18T01:18:57.748Z,-0.23
2022-12-18T01:21:33.216Z,-0.20
2022-12-18T01:24:05.012Z,-0.25
2022-12-18T01:26:35.498Z,-0.23
2022-12-18T01:29:06.001Z,-0.15
2022-12-18T01:31:43.210Z,-0.37
2022-12-18T01:34:13.672Z,-0.22
2022-12-18T01:36:44.157Z,-0.20
2022-12-18T01:39:17.066Z,-0.24
2022-12-18T01:42:05.168Z,-0.46
2022-12-18T01:45:02.836Z,-0.42
2022-12-18T01:47:57.313Z,-0.27
2022-12-18T01:50:40.030Z,-0.11
2022-12-18T01:53:23.491Z,-0.05
2022-12-18T01:55:57.763Z,0.00
2022-12-18T01:58:46.137Z,-0.15
2022-12-18T02:01:17.011Z,-0.11
2022-12-18T02:03:53.628Z,-0.11
2022-12-18T02:06:33.368Z,-0.20
2022-12-18T02:12:04.213Z,-0.15
2022-12-18T02:14:48.246Z,-0.10
2022-12-18T02:17:34.362Z,-0.17
2022-12-18T02:20:22.978Z,-0.23
2022-12-18T02:23:14.514Z,-0.26
2022-12-18T02:26:03.298Z,-0.23
2022-12-18T02:28:36.386Z,-0.37
2022-12-18T02:31:31.876Z,-0.33
2022-12-18T02:34:05.501Z,-0.31
2022-12-18T02:36:38.436Z,-0.58
2022-12-18T02:39:13.982Z,-0.60
2022-12-18T02:41:45.626Z,-0.58
2022-12-18T02:44:16.950Z,-0.43
2022-12-18T02:46:55.879Z,-0.65
2022-12-18T02:49:45.886Z,-0.67
2022-12-18T02:52:28.670Z,-0.57
2022-12-18T02:55:42.568Z,-0.31
2022-12-18T02:58:31.356Z,-0.30
2022-12-18T03:01:07.590Z,-0.14
2022-12-18T03:03:43.514Z,-0.15
2022-12-18T03:06:16.886Z,-0.29
2022-12-18T03:08:50.271Z,-0.31
2022-12-18T03:11:48.371Z,-0.32
2022-12-18T03:14:23.467Z,-0.12
2022-12-18T03:16:59.089Z,-0.11
2022-12-18T03:19:34.281Z,-0.05
2022-12-18T03:22:07.804Z,-0.03
2022-12-18T03:24:47.838Z,-0.03
2022-12-18T03:27:21.246Z,-0.02
2022-12-18T03:30:09.755Z,-0.07
2022-12-18T03:33:12.159Z,-0.29
2022-12-18T03:35:45.862Z,-0.34
2022-12-18T03:38:22.630Z,-0.24
2022-12-18T03:40:56.045Z,-0.26
2022-12-18T03:43:39.015Z,-0.37
2022-12-18T03:46:25.250Z,-0.48
2022-12-18T03:48:58.704Z,-0.64
2022-12-18T03:51:42.067Z,-0.54
2022-12-18T03:54:13.762Z,-0.60
2022-12-18T03:56:47.193Z,-0.45
2022-12-18T03:59:22.980Z,-0.39
2022-12-18T04:01:56.915Z,-0.34
2022-12-18T04:04:40.214Z,-0.45
2022-12-18T04:07:11.265Z,-0.47
2022-12-18T04:09:43.502Z,-0.49
2022-12-18T04:12:27.489Z,-0.52
2022-12-18T04:14:57.897Z,-0.09
2022-12-18T04:17:31.655Z,-0.19
2022-12-18T04:20:02.986Z,-0.35
2022-12-18T04:22:33.428Z,-0.40
2022-12-18T04:25:05.339Z,-0.40
2022-12-18T04:27:35.804Z,-0.48
2022-12-18T04:30:13.016Z,-0.46
2022-12-18T04:32:47.733Z,-0.53
2022-12-18T04:35:15.762Z,-0.32
2022-12-18T04:37:52.449Z,-0.54
2022-12-18T04:40:22.526Z,-0.46
2022-12-18T04:42:53.029Z,-0.44
2022-12-18T04:45:24.636Z,-0.46
2022-12-18T04:47:55.239Z,-0.65
2022-12-18T04:50:31.226Z,-0.71
2022-12-18T04:53:01.737Z,-0.61
2022-12-18T04:55:32.232Z,-0.74
2022-12-18T04:58:02.797Z,-0.69
2022-12-18T05:00:38.883Z,-0.74
2022-12-18T05:03:09.330Z,-0.57
2022-12-18T05:05:40.962Z,-0.60
2022-12-18T05:08:11.414Z,-0.63
2022-12-18T05:10:47.003Z,-0.92
2022-12-18T05:13:17.419Z,-0.78
2022-12-18T05:15:50.863Z,-0.62
2022-12-18T05:18:22.637Z,-0.73
2022-12-18T05:21:17.427Z,-0.74
2022-12-18T05:23:48.184Z,-1.16
2022-12-18T05:26:20.441Z,-0.97
2022-12-18T05:28:50.873Z,-1.07
2022-12-18T05:31:29.236Z,-1.03
2022-12-18T05:34:00.537Z,-1.35
2022-12-18T05:36:31.110Z,-1.24
2022-12-18T05:39:10.228Z,-1.40
2022-12-18T05:41:36.032Z,-1.23
2022-12-18T05:44:06.405Z,-0.76
2022-12-18T05:46:37.613Z,-1.03
2022-12-18T05:49:08.143Z,-1.32
2022-12-18T05:51:47.432Z,-1.47
2022-12-18T05:54:17.998Z,-1.83
2022-12-18T05:56:49.042Z,-1.46
2022-12-18T05:59:27.303Z,-1.52
2022-12-18T06:01:54.896Z,-1.54
2022-12-18T06:04:25.495Z,-1.57
2022-12-18T06:06:56.087Z,-1.65
2022-12-18T06:09:26.511Z,-1.61
2022-12-18T06:12:02.699Z,-1.75
2022-12-18T06:14:34.297Z,-1.77
2022-12-18T06:17:04.773Z,-1.61
2022-12-18T06:19:35.223Z,-1.72
2022-12-18T06:22:14.237Z,-1.82
2022-12-18T06:24:44.692Z,-1.72
2022-12-18T06:27:15.269Z,-1.91
2022-12-18T06:29:46.195Z,-1.79
2022-12-18T06:32:21.917Z,-1.99
2022-12-18T06:34:54.414Z,-2.18
2022-12-18T06:37:36.248Z,-2.10
2022-12-18T06:40:08.737Z,-1.96
2022-12-18T06:42:39.229Z,-2.03
2022-12-18T06:47:46.298Z,-2.10
2022-12-18T06:50:16.988Z,-1.95
2022-12-18T06:52:47.433Z,-2.22
2022-12-18T06:55:18.023Z,-2.06
2022-12-18T06:57:54.215Z,-2.11
2022-12-18T07:00:25.845Z,-1.92
2022-12-18T07:02:57.882Z,-1.98
2022-12-18T07:05:29.636Z,-2.24
2022-12-18T07:08:01.748Z,-2.06
2022-12-18T07:10:32.160Z,-2.12
2022-12-18T07:13:02.542Z,-2.01
2022-12-18T07:15:33.037Z,-1.97
2022-12-18T07:18:04.800Z,-2.15
2022-12-18T07:20:35.323Z,-2.29
2022-12-18T07:23:07.443Z,-2.29
2022-12-18T07:25:38.788Z,-2.58
2022-12-18T07:28:12.871Z,-2.61
2022-12-18T07:30:41.571Z,-2.42
2022-12-18T07:33:12.744Z,-2.39
2022-12-18T07:35:43.713Z,-2.55
2022-12-18T07:38:14.221Z,-2.39
2022-12-18T07:40:44.676Z,-2.37
2022-12-18T07:43:15.177Z,-2.46
2022-12-18T07:45:46.241Z,-2.41
2022-12-18T07:48:16.720Z,-2.35
2022-12-18T07:50:47.229Z,-2.61
2022-12-18T07:53:17.754Z,-2.31
2022-12-18T07:56:24.916Z,-2.51
2022-12-18T07:58:20.664Z,-2.35
2022-12-18T08:00:53.417Z,-2.80
2022-12-18T08:03:23.922Z,-2.64
2022-12-18T08:05:54.742Z,-3.28
2022-12-18T08:08:25.241Z,-3.12
2022-12-18T08:10:56.030Z,-3.05
2022-12-18T08:13:27.497Z,-2.88
2022-12-18T08:16:06.985Z,-2.88
2022-12-18T08:18:39.286Z,-2.92
2022-12-18T08:21:19.265Z,-2.78
2022-12-18T08:23:53.751Z,-3.42
2022-12-18T08:26:25.557Z,-3.18
2022-12-18T08:28:58.495Z,-3.41
2022-12-18T08:31:30.526Z,-2.97
2022-12-18T08:34:02.392Z,-3.33
2022-12-18T08:36:32.888Z,-3.15
2022-12-18T08:39:03.511Z,-3.29
2022-12-18T08:41:34.339Z,-3.28
2022-12-18T08:44:22.987Z,-3.37
2022-12-18T08:46:53.483Z,-3.14
2022-12-18T08:49:23.963Z,-3.32
2022-12-18T08:51:58.463Z,-3.11
2022-12-18T08:54:30.615Z,-2.97
2022-12-18T08:57:01.125Z,-3.01
2022-12-18T08:59:31.645Z,-2.85
2022-12-18T09:02:02.612Z,-3.01
2022-12-18T09:04:33.273Z,-2.98
2022-12-18T09:07:03.801Z,-2.94
2022-12-18T09:09:34.313Z,-3.48
2022-12-18T09:12:04.947Z,-3.24
2022-12-18T09:14:35.540Z,-3.16
2022-12-18T09:17:06.235Z,-2.97
2022-12-18T09:19:36.716Z,-2.81
2022-12-18T09:22:07.469Z,-3.38
2022-12-18T09:24:38.298Z,-3.58
2022-12-18T09:27:10.094Z,-3.82
2022-12-18T09:29:41.684Z,-3.81
2022-12-18T09:32:15.247Z,-3.84
2022-12-18T09:34:44.419Z,-3.77
2022-12-18T09:37:16.154Z,-3.90
2022-12-18T09:39:47.947Z,-3.81
2022-12-18T09:42:25.254Z,-3.79
2022-12-18T09:44:56.762Z,-3.58
2022-12-18T09:47:39.457Z,-3.59
2022-12-18T09:50:24.829Z,-3.73
2022-12-18T09:52:58.660Z,-3.09
2022-12-18T09:55:38.323Z,-3.43
2022-12-18T09:58:20.959Z,-3.32
2022-12-18T10:00:54.558Z,-3.84
2022-12-18T10:03:25.494Z,-3.94
2022-12-18T10:06:23.720Z,-3.87
2022-12-18T10:08:57.318Z,-4.05
2022-12-18T10:11:45.770Z,-4.04
2022-12-18T10:14:39.752Z,-3.79
2022-12-18T10:17:49.856Z,-4.08
2022-12-18T10:20:35.232Z,-3.36
2022-12-18T10:23:17.995Z,-3.06
2022-12-18T10:25:51.606Z,-3.62
2022-12-18T10:28:23.198Z,-3.43
2022-12-18T10:30:55.214Z,-3.52
2022-12-18T10:33:28.657Z,-3.43
2022-12-18T10:35:59.533Z,-3.66
2022-12-18T10:38:33.876Z,-3.63
2022-12-18T10:41:07.334Z,-3.13
2022-12-18T10:43:40.397Z,-3.35
2022-12-18T10:46:15.663Z,-3.25
2022-12-18T10:48:52.563Z,-3.43
2022-12-18T10:51:40.867Z,-3.16
2022-12-18T10:54:41.349Z,-2.82
2022-12-18T10:57:43.455Z,-2.77
2022-12-18T11:00:31.607Z,-2.76
2022-12-18T11:03:02.358Z,-3.24
2022-12-18T11:05:35.210Z,-3.09
2022-12-18T11:08:06.263Z,-2.71
2022-12-18T11:10:40.314Z,-3.13
2022-12-18T11:13:25.492Z,-2.97
2022-12-18T11:15:56.764Z,-2.86
2022-12-18T11:18:30.330Z,-2.69
2022-12-18T11:21:03.833Z,-2.73
2022-12-18T11:23:35.444Z,-2.95
2022-12-18T11:26:07.647Z,-2.66
2022-12-18T11:28:42.628Z,-2.64
2022-12-18T11:31:29.105Z,-2.70
2022-12-18T11:34:27.934Z,-2.61
2022-12-18T11:36:49.816Z,-2.81
2022-12-18T11:39:43.217Z,-2.87
2022-12-18T11:42:42.519Z,-2.66
2022-12-18T11:45:21.420Z,-2.74
2022-12-18T11:48:14.366Z,-2.96
2022-12-18T11:50:56.909Z,-2.62
2022-12-18T11:53:29.892Z,-2.44
2022-12-18T11:56:24.387Z,-2.48
2022-12-18T11:59:00.962Z,-2.83
2022-12-18T12:01:43.885Z,-2.88
2022-12-18T12:04:39.563Z,-2.93
2022-12-18T12:07:14.007Z,-2.60
2022-12-18T12:09:54.471Z,-2.70
2022-12-18T12:12:38.567Z,-2.79
2022-12-18T12:15:27.161Z,-2.86
2022-12-18T12:18:08.201Z,-2.40
2022-12-18T12:20:50.558Z,-2.68
2022-12-18T12:23:44.252Z,-2.78
2022-12-18T12:26:32.667Z,-3.18
2022-12-18T12:29:29.424Z,-2.79
2022-12-18T12:32:25.783Z,-2.70
2022-12-18T12:35:30.365Z,-3.42
2022-12-18T12:38:16.052Z,-3.01
2022-12-18T12:40:54.976Z,-2.69
2022-12-18T12:43:30.981Z,-2.89
2022-12-18T12:46:05.884Z,-2.71
2022-12-18T12:48:44.930Z,-2.88
2022-12-18T12:51:27.972Z,-2.69
2022-12-18T12:54:01.923Z,-2.98
2022-12-18T12:57:01.481Z,-2.94
2022-12-18T13:00:05.865Z,-2.96
2022-12-18T13:03:11.401Z,-2.98
2022-12-18T13:06:02.864Z,-2.83
2022-12-18T13:08:37.566Z,-2.31
2022-12-18T13:11:32.037Z,-2.83
2022-12-18T13:14:02.662Z,-2.76
2022-12-18T13:16:33.417Z,-2.95
2022-12-18T13:19:04.190Z,-2.99
2022-12-18T13:21:37.901Z,-2.82
2022-12-18T13:24:31.223Z,-2.92
2022-12-18T13:27:01.979Z,-2.90
2022-12-18T13:29:47.968Z,-2.49
2022-12-18T13:32:28.682Z,-2.43
2022-12-18T13:35:21.846Z,-2.62
2022-12-18T13:37:57.276Z,-2.48
2022-12-18T13:40:46.040Z,-2.63
2022-12-18T13:43:23.148Z,-2.24
2022-12-18T13:46:24.274Z,-2.14
2022-12-18T13:49:07.677Z,-2.29
2022-12-18T13:51:42.399Z,-2.41
2022-12-18T13:54:34.209Z,-2.34
2022-12-18T13:57:06.115Z,-2.61
2022-12-18T13:59:42.246Z,-2.34
2022-12-18T14:02:21.970Z,-2.18
2022-12-18T14:04:54.408Z,-2.39
2022-12-18T14:07:29.669Z,-2.11
2022-12-18T14:12:55.156Z,-1.95
2022-12-18T14:15:31.873Z,-2.35
2022-12-18T14:18:12.805Z,-2.50
2022-12-18T14:20:52.355Z,-2.32
2022-12-18T14:23:39.009Z,-2.41
2022-12-18T14:26:30.698Z,-2.37
2022-12-18T14:29:03.807Z,-2.00
2022-12-18T14:31:34.328Z,-1.99
2022-12-18T14:34:05.147Z,-2.08
2022-12-18T14:36:37.004Z,-2.25
2022-12-18T14:39:07.605Z,-2.36
2022-12-18T14:41:39.309Z,-2.26
2022-12-18T14:44:12.809Z,-2.32
2022-12-18T14:46:45.637Z,-2.25
2022-12-18T14:49:31.475Z,-2.12
2022-12-18T14:52:09.333Z,-2.20
2022-12-18T14:54:43.464Z,-2.15
2022-12-18T14:57:41.874Z,-2.35
2022-12-18T15:00:23.344Z,-2.44
2022-12-18T15:03:03.481Z,-2.18
2022-12-18T15:05:37.943Z,-2.56
2022-12-18T15:08:20.844Z,-2.45
2022-12-18T15:10:53.574Z,-2.55
2022-12-18T15:13:27.461Z,-2.57
2022-12-18T15:16:07.703Z,-2.52
2022-12-18T15:18:42.874Z,-2.37
2022-12-18T15:21:34.187Z,-2.28
2022-12-18T15:24:07.478Z,-2.11
2022-12-18T15:26:41.177Z,-1.96
2022-12-18T15:29:28.718Z,-2.35
2022-12-18T15:32:09.320Z,-2.33
2022-12-18T15:34:41.637Z,-2.49
2022-12-18T15:37:15.067Z,-2.37
2022-12-18T15:39:48.327Z,-2.52
2022-12-18T15:42:41.096Z,-2.73
2022-12-18T15:45:31.179Z,-2.39
2022-12-18T15:48:25.452Z,-2.89
2022-12-18T15:50:59.672Z,-2.70
2022-12-18T15:53:35.568Z,-2.58
2022-12-18T15:56:27.408Z,-2.79
2022-12-18T15:59:18.922Z,-2.75
2022-12-18T16:01:55.963Z,-2.69
2022-12-18T16:04:29.164Z,-2.77
2022-12-18T16:07:14.827Z,-2.83
2022-12-18T16:12:35.277Z,-2.92
2022-12-18T16:15:09.032Z,-2.96
2022-12-18T16:17:59.960Z,-2.87
2022-12-18T16:20:32.152Z,-2.66
2022-12-18T16:23:07.658Z,-2.85
2022-12-18T16:25:41.381Z,-2.80
2022-12-18T16:28:15.158Z,-2.76
2022-12-18T16:30:49.611Z,-3.05
2022-12-18T16:33:24.548Z,-2.96
2022-12-18T16:36:01.133Z,-3.08
2022-12-18T16:38:32.442Z,-3.19
2022-12-18T16:41:36.550Z,-3.07
2022-12-18T16:44:12.819Z,-3.14
2022-12-18T16:46:51.903Z,-3.25
2022-12-18T16:49:25.171Z,-3.36
2022-12-18T16:52:02.431Z,-3.37
2022-12-18T16:54:38.006Z,-3.57
2022-12-18T16:57:16.875Z,-3.48
2022-12-18T16:59:51.332Z,-3.31
2022-12-18T17:02:26.550Z,-3.54
2022-12-18T17:05:03.676Z,-3.68
2022-12-18T17:07:36.919Z,-3.61
2022-12-18T17:10:13.527Z,-3.85
2022-12-18T17:12:45.907Z,-3.82
2022-12-18T17:15:16.548Z,-3.73
2022-12-18T17:17:47.729Z,-3.51
2022-12-18T17:20:19.529Z,-3.75
2022-12-18T17:22:50.365Z,-3.59
2022-12-18T17:25:20.957Z,-3.74
2022-12-18T17:27:52.704Z,-3.71
2022-12-18T17:30:24.698Z,-3.79
2022-12-18T17:32:55.315Z,-4.09
2022-12-18T17:35:26.996Z,-3.93
2022-12-18T17:37:57.552Z,-3.97
2022-12-18T17:40:28.108Z,-3.91
2022-12-18T17:43:00.219Z,-4.11
2022-12-18T17:45:31.207Z,-4.38
2022-12-18T17:48:03.568Z,-3.93
2022-12-18T17:50:38.251Z,-4.06
2022-12-18T17:53:08.835Z,-4.07
2022-12-18T17:55:39.464Z,-3.89
2022-12-18T17:58:11.227Z,-4.22
2022-12-18T18:00:42.548Z,-3.90
2022-12-18T18:03:13.319Z,-3.82
2022-12-18T18:05:44.257Z,-3.91
2022-12-18T18:08:14.872Z,-3.94
2022-12-18T18:10:45.445Z,-3.94
2022-12-18T18:13:46.608Z,-4.06
2022-12-18T18:16:15.248Z,-3.99
2022-12-18T18:18:47.089Z,-4.04
2022-12-18T18:21:17.614Z,-3.90
2022-12-18T18:23:49.203Z,-3.96
2022-12-18T18:26:22.357Z,-4.11
2022-12-18T18:28:56.062Z,-4.08
2022-12-18T18:31:28.065Z,-3.86
2022-12-18T18:33:59.318Z,-3.86
2022-12-18T18:36:30.299Z,-3.91
2022-12-18T18:39:02.671Z,-3.87
2022-12-18T18:41:34.490Z,-3.89
2022-12-18T18:44:05.290Z,-3.76
2022-12-18T18:46:35.841Z,-3.92
2022-12-18T18:49:06.612Z,-3.93
2022-12-18T18:51:37.251Z,-3.86
2022-12-18T18:54:07.794Z,-3.86
2022-12-18T18:57:03.778Z,-3.67
2022-12-18T18:59:11.727Z,-3.90
2022-12-18T19:01:44.795Z,-3.99
2022-12-18T19:04:15.529Z,-3.86
2022-12-18T19:06:47.707Z,-3.94
2022-12-18T19:09:20.426Z,-3.70
2022-12-18T19:12:11.431Z,-3.92
2022-12-18T19:14:42.014Z,-4.01
2022-12-18T19:17:12.656Z,-3.75
2022-12-18T19:19:44.759Z,-4.05
2022-12-18T19:22:15.285Z,-4.19
2022-12-18T19:24:46.318Z,-4.16
2022-12-18T19:27:16.850Z,-4.03
2022-12-18T19:29:47.388Z,-4.12
2022-12-18T19:32:18.040Z,-4.24
2022-12-18T19:34:48.614Z,-4.02
2022-12-18T19:37:20.245Z,-4.44
2022-12-18T19:39:50.981Z,-4.21
2022-12-18T19:42:28.136Z,-4.22
2022-12-18T19:44:55.054Z,-4.19
2022-12-18T19:47:25.686Z,-4.06
2022-12-18T19:49:58.924Z,-4.23
2022-12-18T19:52:30.731Z,-3.91
2022-12-18T19:55:02.542Z,-4.12
2022-12-18T19:57:33.732Z,-4.15
2022-12-18T20:00:05.562Z,-3.91
2022-12-18T20:02:37.095Z,-4.09
2022-12-18T20:05:11.171Z,-4.14
2022-12-18T20:07:42.173Z,-3.99
2022-12-18T20:10:16.002Z,-4.00
2022-12-18T20:12:48.699Z,-4.28
2022-12-18T20:15:19.515Z,-3.74
2022-12-18T20:17:50.143Z,-4.13
2022-12-18T20:20:22.155Z,-4.13
2022-12-18T20:22:53.117Z,-4.07
2022-12-18T20:25:23.719Z,-4.04
2022-12-18T20:27:55.473Z,-4.23
2022-12-18T20:30:26.075Z,-3.94
2022-12-18T20:32:57.893Z,-3.96
2022-12-18T20:35:30.137Z,-4.02
2022-12-18T20:38:00.789Z,-4.06
2022-12-18T20:40:31.856Z,-3.93
2022-12-18T20:43:02.942Z,-4.12
2022-12-18T20:45:34.789Z,-3.81
2022-12-18T20:48:06.358Z,-3.98
2022-12-18T20:50:36.981Z,-3.87
2022-12-18T20:53:07.497Z,-3.92
2022-12-18T20:55:40.918Z,-3.61
2022-12-18T20:58:12.782Z,-4.24
2022-12-18T21:00:44.524Z,-3.53
2022-12-18T21:03:15.294Z,-3.97
2022-12-18T21:05:45.999Z,-3.87
2022-12-18T21:08:16.620Z,-3.88
2022-12-18T21:10:47.266Z,-3.91
2022-12-18T21:13:18.095Z,-3.88
2022-12-18T21:15:50.323Z,-3.90
2022-12-18T21:18:20.935Z,-4.07
2022-12-18T21:20:51.517Z,-3.73
2022-12-18T21:23:23.234Z,-3.88
2022-12-18T21:26:01.030Z,-3.46
2022-12-18T21:28:31.754Z,-4.00
2022-12-18T21:31:04.013Z,-3.89
2022-12-18T21:33:34.603Z,-3.63
2022-12-18T21:36:09.839Z,-3.47
2022-12-18T21:38:40.476Z,-4.03
2022-12-18T21:41:31.177Z,-3.80
2022-12-18T21:44:09.237Z,-3.64
2022-12-18T21:46:42.517Z,-3.80
2022-12-18T21:49:17.760Z,-3.74
2022-12-18T21:51:49.725Z,-4.00
2022-12-18T21:54:20.864Z,-3.88
2022-12-18T21:56:56.882Z,-3.99
2022-12-18T21:59:36.782Z,-4.17
2022-12-18T22:02:10.394Z,-3.90
2022-12-18T22:04:41.252Z,-3.85
2022-12-18T22:07:12.754Z,-3.86
2022-12-18T22:09:44.061Z,-4.00
2022-12-18T22:12:17.556Z,-3.77
2022-12-18T22:14:48.158Z,-3.74
2022-12-18T22:17:18.752Z,-3.89
2022-12-18T22:19:50.562Z,-3.89
2022-12-18T22:22:22.591Z,-4.02
2022-12-18T22:24:54.161Z,-3.75
2022-12-18T22:27:24.645Z,-4.14
2022-12-18T22:30:05.499Z,-4.00
2022-12-18T22:32:37.994Z,-3.49
2022-12-18T22:35:15.413Z,-3.90
2022-12-18T22:37:41.797Z,-3.69
2022-12-18T22:40:25.500Z,-3.95
2022-12-18T22:42:56.638Z,-3.80
2022-12-18T22:45:28.202Z,-3.73
2022-12-18T22:48:00.413Z,-3.66
2022-12-18T22:50:30.946Z,-3.91
2022-12-18T22:53:01.497Z,-3.66
2022-12-18T22:55:31.998Z,-3.75
2022-12-18T22:58:03.660Z,-3.72
2022-12-18T23:00:37.071Z,-3.89
2022-12-18T23:03:07.783Z,-4.00
2022-12-18T23:05:38.403Z,-3.91
2022-12-18T23:08:09.456Z,-3.92
2022-12-18T23:10:40.370Z,-3.65
2022-12-18T23:13:11.023Z,-3.90
2022-12-18T23:15:44.483Z,-3.74
2022-12-18T23:18:15.504Z,-3.84
2022-12-18T23:20:47.402Z,-3.71
2022-12-18T23:23:19.228Z,-3.71
2022-12-18T23:25:51.003Z,-3.83
2022-12-18T23:28:22.758Z,-3.70
2022-12-18T23:30:54.528Z,-3.70
2022-12-18T23:33:25.172Z,-3.72
2022-12-18T23:35:55.847Z,-3.69
2022-12-18T23:38:29.528Z,-3.68
2022-12-18T23:41:00.542Z,-3.57
2022-12-18T23:43:31.070Z,-3.85
2022-12-18T23:46:02.912Z,-3.66
2022-12-18T23:48:34.687Z,-3.77
2022-12-18T23:51:10.593Z,-3.73
2022-12-18T23:53:41.530Z,-3.94
2022-12-18T23:56:14.360Z,-3.80
2022-12-18T23:58:46.217Z,-3.67
